Time;durP1;ratioP1;P1;durP2;ratioP2;P2;SDS_P1;SDS_P2;PMS_P1;PMS_P2;Temp;Humidity;BMP_temperature;BMP_pressure;BME280_temperature;BME280_humidity;BME280_pressure;Samples;Min_cycle;Max_cycle;Signal;HPM_P1;HPM_P2
2022/03/12 00:01:42;;;;;;;22.37;16.83;;;;;;;3.32;65.11;95918.19;5092021;28;24471;-73
2022/03/12 00:04:08;;;;;;;19.98;17.48;;;;;;;3.33;64.35;95904.50;5092080;28;24446;-73
2022/03/12 00:06:35;;;;;;;26.30;19.15;;;;;;;3.08;65.90;95912.13;5092038;28;24472;-74
2022/03/12 00:09:05;;;;;;;25.30;18.73;;;;;;;2.95;65.62;95909.09;5091713;28;24421;-73
2022/03/12 00:11:34;;;;;;;24.20;19.10;;;;;;;2.82;66.33;95906.09;5091795;28;24959;-73
2022/03/12 00:14:02;;;;;;;30.25;21.02;;;;;;;2.71;66.27;95912.38;5091952;28;24487;-73
2022/03/12 00:16:29;;;;;;;26.88;21.55;;;;;;;2.48;67.34;95906.22;5091903;28;24810;-74
2022/03/12 00:18:58;;;;;;;27.55;21.55;;;;;;;2.25;68.57;95912.00;5091611;28;24452;-73
2022/03/12 00:21:24;;;;;;;24.40;20.50;;;;;;;2.26;68.86;95908.56;5091708;28;24422;-74
2022/03/12 00:23:53;;;;;;;26.92;20.63;;;;;;;2.34;68.44;95916.03;5091750;28;24418;-73
2022/03/12 00:26:23;;;;;;;29.67;23.35;;;;;;;2.39;67.52;95914.19;5091557;28;24418;-73
2022/03/12 00:28:52;;;;;;;31.33;24.60;;;;;;;2.44;67.72;95914.88;5091477;28;24882;-73
2022/03/12 00:31:18;;;;;;;33.20;25.80;;;;;;;2.49;67.57;95913.03;5091334;28;24982;-73
2022/03/12 00:33:45;;;;;;;30.73;23.33;;;;;;;2.52;67.64;95915.50;5091498;28;24425;-73
2022/03/12 00:36:12;;;;;;;33.90;23.80;;;;;;;2.54;67.73;95912.91;5091436;28;24509;-73
2022/03/12 00:38:39;;;;;;;27.60;18.90;;;;;;;2.25;69.85;95922.22;5091050;28;24453;-73
2022/03/12 00:41:07;;;;;;;23.65;15.35;;;;;;;2.12;71.42;95911.50;5091158;28;24417;-73
2022/03/12 00:43:35;;;;;;;22.38;16.85;;;;;;;2.06;72.59;95906.56;5091488;28;24483;-73
2022/03/12 00:46:02;;;;;;;23.10;15.55;;;;;;;1.99;73.45;95911.88;5091400;28;24410;-73
2022/03/12 00:48:31;;;;;;;20.52;15.02;;;;;;;2.06;72.75;95914.22;5091101;28;24425;-73
2022/03/12 00:50:57;;;;;;;19.67;15.10;;;;;;;2.27;72.37;95919.66;5090930;28;24515;-73
2022/03/12 00:53:24;;;;;;;19.45;14.93;;;;;;;2.31;71.85;95911.84;5091048;28;24939;-73
2022/03/12 00:55:50;;;;;;;21.50;17.40;;;;;;;2.42;71.49;95916.66;5090833;28;25012;-73
2022/03/12 00:58:17;;;;;;;19.48;16.55;;;;;;;2.55;70.69;95922.25;5090946;28;24441;-73
2022/03/12 01:00:44;;;;;;;17.63;15.25;;;;;;;2.14;72.99;95930.19;5091096;28;24434;-73
2022/03/12 01:03:11;;;;;;;17.30;14.90;;;;;;;2.19;71.80;95930.06;5091028;28;24426;-73
2022/03/12 01:05:54;;;;;;;20.55;15.90;;;;;;;2.34;71.22;95926.25;5090873;28;24414;-73
2022/03/12 01:08:23;;;;;;;19.48;15.15;;;;;;;2.29;71.58;95935.75;5090473;28;24459;-73
2022/03/12 01:10:50;;;;;;;20.40;15.50;;;;;;;2.03;73.79;95923.69;5090906;28;24543;-73
2022/03/12 01:13:16;;;;;;;21.58;14.70;;;;;;;2.13;72.60;95927.69;5090768;28;24982;-73
2022/03/12 01:15:44;;;;;;;18.45;15.32;;;;;;;2.20;73.05;95925.81;5090349;28;24797;-73
2022/03/12 01:18:14;;;;;;;21.10;15.40;;;;;;;2.28;71.81;95929.81;5090468;28;24446;-73
2022/03/12 01:20:41;;;;;;;16.83;14.52;;;;;;;2.21;72.81;95922.34;5090518;28;24419;-73
2022/03/12 01:23:07;;;;;;;17.85;14.43;;;;;;;2.33;72.23;95924.56;5091045;28;24497;-73
2022/03/12 01:25:34;;;;;;;18.42;14.90;;;;;;;2.35;71.54;95930.47;5090688;28;24425;-73
2022/03/12 01:28:00;;;;;;;17.48;14.77;;;;;;;2.36;72.39;95927.03;5090936;28;24776;-73
2022/03/12 01:30:28;;;;;;;17.77;14.13;;;;;;;2.43;72.44;95923.44;5090467;28;24445;-73
2022/03/12 01:32:57;;;;;;;19.73;14.50;;;;;;;2.47;71.55;95922.47;5090271;28;24947;-73
2022/03/12 01:35:24;;;;;;;19.45;14.80;;;;;;;2.48;71.76;95926.69;5090414;28;24943;-74
2022/03/12 01:37:51;;;;;;;20.65;14.73;;;;;;;2.56;71.65;95919.66;5090933;28;24445;-73
2022/03/12 01:40:17;;;;;;;20.15;14.88;;;;;;;2.62;70.65;95921.19;5090147;28;24418;-73
2022/03/12 01:42:44;;;;;;;21.73;15.60;;;;;;;2.39;71.74;95922.69;5090494;28;24417;-73
2022/03/12 01:45:11;;;;;;;27.08;17.30;;;;;;;2.22;72.73;95918.91;5090279;28;24414;-73
2022/03/12 01:47:38;;;;;;;19.83;16.08;;;;;;;2.12;73.49;95916.63;5090397;28;24521;-73
2022/03/12 01:50:06;;;;;;;19.98;15.07;;;;;;;2.24;72.95;95922.28;5089791;28;24547;-73
2022/03/12 01:52:32;;;;;;;18.47;15.63;;;;;;;2.37;72.48;95918.47;5090552;28;24418;-73
2022/03/12 01:54:59;;;;;;;20.73;15.87;;;;;;;2.47;72.58;95925.00;5090145;28;24830;-73
2022/03/12 01:57:26;;;;;;;19.23;16.30;;;;;;;2.54;72.09;95923.97;5090401;28;24414;-73
2022/03/12 01:59:53;;;;;;;18.77;16.77;;;;;;;2.54;71.81;95930.78;5090000;28;24858;-73
2022/03/12 02:02:20;;;;;;;27.20;17.75;;;;;;;2.31;72.95;95918.69;5090100;28;24979;-73
2022/03/12 02:04:49;;;;;;;20.60;16.42;;;;;;;2.43;71.98;95919.16;5090170;28;24428;-73
2022/03/12 02:07:17;;;;;;;19.13;15.40;;;;;;;2.49;72.14;95925.81;5090185;28;24433;-73
2022/03/12 02:09:46;;;;;;;17.75;15.30;;;;;;;2.55;72.43;95917.97;5090095;28;24817;-73
2022/03/12 02:12:12;;;;;;;15.23;13.63;;;;;;;2.57;72.17;95918.75;5090268;28;24414;-73
2022/03/12 02:14:39;;;;;;;17.77;13.45;;;;;;;2.56;71.84;95918.78;5090156;28;24981;-73
2022/03/12 02:17:10;;;;;;;17.05;13.18;;;;;;;2.53;71.64;95924.84;5090009;28;24535;-73
2022/03/12 02:19:37;;;;;;;17.98;14.32;;;;;;;2.48;72.32;95924.13;5089829;28;24515;-73
2022/03/12 02:22:07;;;;;;;18.63;14.45;;;;;;;2.40;72.31;95923.50;5090108;28;24423;-73
2022/03/12 02:24:36;;;;;;;16.17;14.43;;;;;;;2.41;72.30;95926.03;5089845;28;24421;-74
2022/03/12 02:27:06;;;;;;;17.08;13.93;;;;;;;2.42;72.36;95919.22;5091733;28;24421;-73
2022/03/12 02:29:33;;;;;;;19.45;15.57;;;;;;;2.38;73.01;95922.72;5093387;28;24430;-74
2022/03/12 02:32:02;;;;;;;23.08;15.02;;;;;;;2.44;72.52;95925.09;5093882;28;24437;-73
2022/03/12 02:34:32;;;;;;;16.93;13.93;;;;;;;2.48;72.90;95923.28;5093929;28;24509;-73
2022/03/12 02:36:59;;;;;;;23.08;13.63;;;;;;;2.42;74.16;95929.44;5093632;28;24421;-73
2022/03/12 02:39:27;;;;;;;18.10;15.00;;;;;;;2.36;74.13;95922.75;5093352;28;24452;-73
2022/03/12 02:41:55;;;;;;;18.60;13.80;;;;;;;2.39;73.47;95926.97;5093631;28;24529;-73
2022/03/12 02:44:24;;;;;;;17.63;14.85;;;;;;;2.39;73.51;95925.22;5093414;28;24772;-73
2022/03/12 02:47:14;;;;;;;18.95;16.25;;;;;;;2.21;74.22;95920.63;5093599;28;24445;-73
2022/03/12 02:49:45;;;;;;;20.73;16.45;;;;;;;2.08;76.78;95937.19;5093231;28;24525;-73
2022/03/12 02:52:12;;;;;;;20.17;15.70;;;;;;;1.96;76.69;95929.84;5093424;28;24421;-73
2022/03/12 02:54:38;;;;;;;18.13;14.33;;;;;;;1.98;76.22;95931.47;5093424;28;24426;-73
2022/03/12 02:57:06;;;;;;;20.92;16.15;;;;;;;1.95;76.38;95926.44;5098708;23;24590;-73
2022/03/12 02:59:33;;;;;;;17.33;15.55;;;;;;;1.89;76.77;95924.03;5093200;28;24491;-73
2022/03/12 03:02:00;;;;;;;19.60;16.03;;;;;;;1.92;76.80;95924.81;5093245;28;24450;-73
2022/03/12 03:04:27;;;;;;;22.00;16.25;;;;;;;1.97;76.54;95926.44;5093327;28;24414;-73
2022/03/12 03:06:53;;;;;;;24.02;18.70;;;;;;;1.97;76.49;95934.09;5094769;28;24425;-73
2022/03/12 03:09:20;;;;;;;32.10;20.27;;;;;;;1.97;75.94;95932.38;5113414;28;24448;-73
2022/03/12 03:11:46;;;;;;;26.93;19.30;;;;;;;2.03;75.77;95939.84;5113212;28;24973;-73
2022/03/12 03:14:19;;;;;;;33.97;18.80;;;;;;;2.08;76.39;95932.91;5113608;28;24417;-73
2022/03/12 03:16:51;;;;;;;21.10;16.88;;;;;;;2.10;76.29;95933.69;5113115;28;24779;-74
2022/03/12 03:19:18;;;;;;;18.70;16.17;;;;;;;2.13;76.83;95935.34;5112973;28;24446;-73
2022/03/12 03:21:44;;;;;;;19.20;13.98;;;;;;;2.12;76.73;95949.84;5113188;28;24437;-74
2022/03/12 03:24:11;;;;;;;22.63;15.57;;;;;;;2.15;77.21;95944.66;5113212;28;24417;-73
2022/03/12 03:26:51;;;;;;;25.77;16.20;;;;;;;2.16;76.35;95941.22;5113242;28;24413;-73
2022/03/12 03:29:20;;;;;;;23.52;16.17;;;;;;;2.13;77.10;95941.28;5112963;28;24417;-74
2022/03/12 03:31:47;;;;;;;24.48;18.23;;;;;;;2.16;76.16;95943.75;5113070;28;24421;-73
2022/03/12 03:34:14;;;;;;;24.50;17.92;;;;;;;2.13;76.71;95950.69;5112834;28;24421;-73
2022/03/12 03:36:41;;;;;;;26.38;17.50;;;;;;;2.17;77.00;95950.53;5112846;28;24821;-73
2022/03/12 03:39:08;;;;;;;24.77;16.70;;;;;;;2.04;78.43;95946.66;5112624;28;24491;-73
2022/03/12 03:41:35;;;;;;;26.58;18.05;;;;;;;1.75;81.30;95954.25;5113043;27;24421;-73
2022/03/12 03:44:02;;;;;;;30.52;21.73;;;;;;;1.67;78.81;95960.38;5112861;28;24946;-73
2022/03/12 03:46:30;;;;;;;20.70;18.48;;;;;;;1.52;80.79;95957.34;5112794;28;24455;-73
2022/03/12 03:48:56;;;;;;;22.63;17.67;;;;;;;1.56;80.62;95961.47;5112566;28;24429;-73
2022/03/12 03:51:23;;;;;;;21.65;17.45;;;;;;;1.60;80.19;95965.66;5112750;28;24418;-73
2022/03/12 03:53:50;;;;;;;24.95;17.67;;;;;;;1.68;79.28;95948.44;5112806;28;24420;-75
2022/03/12 03:56:18;;;;;;;19.77;17.50;;;;;;;1.73;78.63;95949.16;5112416;28;24458;-73
2022/03/12 03:58:45;;;;;;;20.20;15.87;;;;;;;1.84;78.60;95954.00;5112019;28;24465;-73
2022/03/12 04:01:15;;;;;;;24.42;17.13;;;;;;;1.93;77.89;95951.22;5112371;28;24413;-73
2022/03/12 04:03:48;;;;;;;19.30;17.25;;;;;;;1.95;76.81;95949.44;5112667;28;24475;-73
2022/03/12 04:06:16;;;;;;;25.42;17.80;;;;;;;1.94;76.48;95950.31;5112406;28;24468;-73
2022/03/12 04:08:44;;;;;;;21.13;16.25;;;;;;;2.13;75.53;95954.06;5112105;28;24414;-73
2022/03/12 04:11:15;;;;;;;23.25;17.00;;;;;;;2.08;75.51;95949.97;5112393;28;24449;-73
2022/03/12 04:13:41;;;;;;;18.38;15.65;;;;;;;2.12;74.82;95951.56;5112233;28;24437;-73
2022/03/12 04:16:08;;;;;;;18.05;16.15;;;;;;;2.10;75.37;95948.19;5111989;28;24982;-73
2022/03/12 04:18:36;;;;;;;18.80;14.95;;;;;;;2.11;76.18;95952.41;5111690;28;24417;-73
2022/03/12 04:21:05;;;;;;;21.17;14.07;;;;;;;1.92;78.50;95959.72;5112055;28;24464;-73
2022/03/12 04:23:31;;;;;;;15.77;14.07;;;;;;;1.86;77.81;95955.63;5112106;28;24425;-73
2022/03/12 04:26:00;;;;;;;20.65;17.27;;;;;;;1.51;78.40;95974.38;5111772;28;24779;-73
2022/03/12 04:28:32;;;;;;;25.38;16.05;;;;;;;1.47;79.27;95971.94;5111838;28;24421;-73
2022/03/12 04:31:00;;;;;;;16.65;14.98;;;;;;;1.53;80.18;95972.63;5112157;28;24516;-73
2022/03/12 04:33:27;;;;;;;20.17;16.27;;;;;;;1.52;80.01;95983.72;5112126;28;24496;-73
2022/03/12 04:35:54;;;;;;;18.05;15.07;;;;;;;1.66;80.08;95980.81;5107591;28;24548;-73
2022/03/12 04:38:22;;;;;;;18.77;14.63;;;;;;;1.75;79.79;95993.38;5098635;28;24632;-73
2022/03/12 04:40:49;;;;;;;16.48;14.68;;;;;;;1.84;79.17;96010.16;5111492;28;24444;-74
2022/03/12 04:43:16;;;;;;;20.73;16.88;;;;;;;1.83;80.23;96013.59;5111668;28;24453;-73
2022/03/12 04:45:45;;;;;;;20.73;15.77;;;;;;;1.80;80.78;96016.22;5111677;28;24829;-74
2022/03/12 04:48:14;;;;;;;16.33;14.43;;;;;;;1.78;80.26;96023.06;5111262;28;24413;-75
2022/03/12 04:50:40;;;;;;;20.33;15.30;;;;;;;1.73;80.60;96024.91;5110820;28;24964;-74
2022/03/12 04:53:08;;;;;;;16.60;13.90;;;;;;;1.79;81.39;96029.88;5111411;28;24428;-74
2022/03/12 04:55:37;;;;;;;19.38;14.68;;;;;;;1.79;81.56;96020.50;5110172;28;26189;-74
2022/03/12 04:58:04;;;;;;;16.33;13.60;;;;;;;1.75;82.08;96025.72;5094197;28;24422;-74
2022/03/12 05:00:35;;;;;;;16.60;13.98;;;;;;;1.79;81.92;96029.88;5104781;28;24446;-74
2022/03/12 05:03:04;;;;;;;15.70;13.75;;;;;;;1.75;83.04;96028.28;5093565;28;24448;-74
2022/03/12 05:05:31;;;;;;;20.35;15.23;;;;;;;1.62;82.66;96026.00;5109817;28;24464;-74
2022/03/12 05:07:59;;;;;;;16.15;14.45;;;;;;;1.33;86.40;96028.38;5111119;28;24490;-74
2022/03/12 05:10:27;;;;;;;18.73;15.23;;;;;;;1.32;85.80;96019.91;5091168;28;24426;-74
2022/03/12 05:12:58;;;;;;;16.88;14.38;;;;;;;1.29;86.36;96024.22;5091116;28;24422;-74
2022/03/12 05:15:25;;;;;;;20.88;15.80;;;;;;;1.19;86.67;96032.09;5090170;28;25067;-74
2022/03/12 05:17:51;;;;;;;17.42;15.57;;;;;;;1.30;85.84;96033.56;5106337;28;24508;-74
2022/03/12 05:20:21;;;;;;;21.25;16.60;;;;;;;1.38;84.38;96037.63;5109575;28;24448;-74
2022/03/12 05:22:48;;;;;;;20.67;15.43;;;;;;;1.56;83.52;96033.81;5110780;28;24413;-73
2022/03/12 05:25:15;;;;;;;18.90;15.90;;;;;;;1.59;82.77;96032.91;5111093;28;24435;-73
2022/03/12 05:27:42;;;;;;;18.73;15.40;;;;;;;1.53;83.47;96040.72;5111084;28;24433;-73
2022/03/12 05:30:11;;;;;;;22.95;15.73;;;;;;;1.50;83.64;96040.78;5106045;28;24483;-73
2022/03/12 05:32:37;;;;;;;21.45;15.00;;;;;;;1.60;83.27;96032.03;5088875;28;24429;-74
2022/03/12 05:35:06;;;;;;;18.38;15.55;;;;;;;1.37;83.94;96035.97;5088636;28;24479;-74
2022/03/12 05:37:32;;;;;;;17.55;15.63;;;;;;;1.29;84.50;96039.53;5088774;28;24422;-74
2022/03/12 05:39:59;;;;;;;19.38;15.45;;;;;;;1.16;85.34;96042.38;5088995;28;24446;-74
2022/03/12 05:42:26;;;;;;;19.75;16.75;;;;;;;1.20;85.30;96036.31;5089363;28;24418;-75
2022/03/12 05:44:56;;;;;;;24.45;17.77;;;;;;;1.36;84.16;96039.38;5090070;28;24429;-74
2022/03/12 05:47:25;;;;;;;18.90;16.17;;;;;;;1.36;84.33;96039.38;5090478;28;25019;-74
2022/03/12 05:49:53;;;;;;;20.20;16.88;;;;;;;1.47;83.39;96038.28;5105948;28;24974;-74
2022/03/12 05:52:20;;;;;;;21.67;17.88;;;;;;;1.54;83.23;96042.38;5098061;28;24457;-75
2022/03/12 05:54:48;;;;;;;20.60;17.02;;;;;;;1.47;83.80;96044.22;5090599;28;24467;-74
2022/03/12 05:57:14;;;;;;;30.27;21.57;;;;;;;1.50;83.72;96045.88;5090261;28;24779;-74
2022/03/12 05:59:41;;;;;;;20.77;17.83;;;;;;;1.53;82.98;96046.66;5090940;28;24491;-74
2022/03/12 06:02:08;;;;;;;23.55;18.52;;;;;;;1.65;82.14;96051.47;5112723;28;24505;-74
2022/03/12 06:04:36;;;;;;;22.70;17.38;;;;;;;1.61;81.73;96054.97;5102869;28;24434;-74
2022/03/12 06:07:03;;;;;;;23.40;18.58;;;;;;;1.64;82.04;96056.63;5108799;28;24442;-74
2022/03/12 06:09:29;;;;;;;22.35;17.15;;;;;;;1.51;83.12;96062.88;5106913;28;24441;-74
2022/03/12 06:11:56;;;;;;;19.97;17.50;;;;;;;1.50;83.78;96059.47;5105360;28;24442;-74
2022/03/12 06:14:24;;;;;;;21.10;17.13;;;;;;;1.52;83.14;96069.66;5099791;28;24444;-74
2022/03/12 06:16:52;;;;;;;21.83;16.48;;;;;;;1.51;83.43;96066.25;5105061;28;24538;-76
2022/03/12 06:19:19;;;;;;;21.80;17.92;;;;;;;1.27;84.85;96066.81;5114630;28;24451;-78
2022/03/12 06:21:48;;;;;;;24.60;17.20;;;;;;;1.23;85.70;96067.75;5114966;28;24505;-76
2022/03/12 06:24:15;;;;;;;19.40;15.87;;;;;;;1.39;84.58;96076.75;5114888;28;24821;-74
2022/03/12 06:26:44;;;;;;;18.45;15.77;;;;;;;1.54;84.74;96073.00;5114694;28;24487;-74
2022/03/12 06:29:13;;;;;;;20.42;15.40;;;;;;;1.60;83.91;96078.00;5114710;28;24425;-74
2022/03/12 06:31:41;;;;;;;17.70;15.18;;;;;;;1.66;84.08;96081.22;5114598;28;24432;-74
2022/03/12 06:34:09;;;;;;;20.45;15.85;;;;;;;1.74;84.29;96085.31;5114732;28;24428;-74
2022/03/12 06:36:37;;;;;;;23.48;16.88;;;;;;;1.76;84.14;96081.03;5114591;28;24470;-75
2022/03/12 06:39:05;;;;;;;18.90;15.52;;;;;;;1.79;83.29;96084.34;5114123;28;24448;-74
2022/03/12 06:41:35;;;;;;;19.58;16.27;;;;;;;1.79;83.70;96088.63;5113840;28;24483;-74
2022/03/12 06:44:02;;;;;;;21.30;16.08;;;;;;;1.76;84.58;96086.13;5114303;28;24833;-74
2022/03/12 06:46:29;;;;;;;19.88;16.13;;;;;;;1.85;84.00;96085.91;5114382;28;24417;-74
2022/03/12 06:48:56;;;;;;;19.48;15.95;;;;;;;1.80;83.78;96074.97;5114179;28;24425;-74
2022/03/12 06:51:23;;;;;;;21.90;15.20;;;;;;;1.83;86.40;96093.63;5114084;28;24946;-74
2022/03/12 06:53:51;;;;;;;19.05;14.38;;;;;;;1.78;88.44;96086.91;5113949;28;24422;-75
2022/03/12 06:56:19;;;;;;;18.00;13.60;;;;;;;1.66;90.13;96081.22;5110792;28;24441;-74
2022/03/12 06:58:45;;;;;;;19.33;14.82;;;;;;;1.67;91.70;96088.03;5096939;28;24434;-75
2022/03/12 07:01:12;;;;;;;18.23;15.80;;;;;;;1.83;90.44;96080.00;5104910;28;24456;-74
2022/03/12 07:03:38;;;;;;;19.52;17.42;;;;;;;1.98;90.63;96079.63;5105383;28;24475;-75
2022/03/12 07:06:06;;;;;;;18.70;16.73;;;;;;;2.18;88.48;96082.53;5114008;28;24486;-74
2022/03/12 07:08:33;;;;;;;18.77;15.98;;;;;;;2.27;88.07;96083.19;5113732;28;24432;-75
2022/03/12 07:11:01;;;;;;;23.73;17.38;;;;;;;2.37;87.81;96087.19;5113974;27;24500;-74
2022/03/12 07:13:30;;;;;;;19.42;17.33;;;;;;;2.51;85.71;96085.09;5112948;28;24454;-75
2022/03/12 07:15:56;;;;;;;21.67;16.25;;;;;;;2.67;84.51;96083.00;5113861;28;24530;-74
2022/03/12 07:18:23;;;;;;;17.83;15.98;;;;;;;2.88;82.69;96079.00;5113681;28;24432;-75
2022/03/12 07:20:49;;;;;;;27.30;17.73;;;;;;;3.02;80.91;96082.03;5113290;28;25071;-74
2022/03/12 07:23:16;;;;;;;18.30;16.27;;;;;;;3.19;81.21;96075.56;5113406;28;25142;-74
2022/03/12 07:25:42;;;;;;;19.80;16.10;;;;;;;3.33;82.68;96081.97;5113515;28;24829;-74
2022/03/12 07:28:10;;;;;;;21.15;16.40;;;;;;;3.49;80.57;96076.41;5113231;28;24422;-74
2022/03/12 07:30:37;;;;;;;20.65;17.23;;;;;;;3.73;80.85;96074.81;5106408;28;24426;-74
2022/03/12 07:33:04;;;;;;;19.45;17.27;;;;;;;3.93;79.03;96067.38;5112243;28;24436;-75
2022/03/12 07:35:30;;;;;;;18.02;16.02;;;;;;;4.13;75.76;96069.28;5113124;28;24474;-76
2022/03/12 07:37:57;;;;;;;20.20;15.90;;;;;;;4.25;74.09;96071.41;5113440;28;24429;-75
2022/03/12 07:40:23;;;;;;;19.63;16.88;;;;;;;4.43;75.04;96069.97;5097938;28;24456;-74
2022/03/12 07:42:50;;;;;;;23.20;16.60;;;;;;;4.61;73.26;96069.34;5093020;28;24421;-74
2022/03/12 07:45:19;;;;;;;25.83;17.15;;;;;;;4.68;69.35;96077.69;5092874;28;24418;-75
2022/03/12 07:47:47;;;;;;;19.92;16.88;;;;;;;4.60;69.09;96071.97;5092681;28;24419;-75
2022/03/12 07:50:14;;;;;;;20.47;17.50;;;;;;;4.56;69.55;96071.25;5092229;28;25112;-74
2022/03/12 07:52:41;;;;;;;21.65;17.08;;;;;;;4.55;68.31;96079.81;5092903;28;24425;-75
2022/03/12 07:55:09;;;;;;;18.77;16.27;;;;;;;4.47;68.53;96079.25;5092587;28;24798;-75
2022/03/12 07:57:36;;;;;;;28.40;16.93;;;;;;;4.46;68.36;96081.88;5092187;28;24519;-74
2022/03/12 08:00:06;;;;;;;18.80;16.48;;;;;;;4.41;68.67;96083.72;5092272;28;24578;-74
2022/03/12 08:02:32;;;;;;;18.73;16.55;;;;;;;4.38;68.62;96086.41;5092526;28;24497;-75
2022/03/12 08:05:00;;;;;;;21.45;17.42;;;;;;;4.52;68.67;96091.91;5092069;28;24978;-73
2022/03/12 08:07:28;;;;;;;21.63;17.75;;;;;;;4.71;66.71;96084.41;5097335;28;24441;-74
2022/03/12 08:09:56;;;;;;;32.08;18.35;;;;;;;4.54;67.39;96083.28;5112812;28;24453;-74
2022/03/12 08:12:24;;;;;;;20.67;17.73;;;;;;;4.57;68.02;96082.34;5112537;28;24513;-74
2022/03/12 08:14:51;;;;;;;23.87;18.20;;;;;;;4.60;67.96;96092.50;5112691;28;24508;-70
2022/03/12 08:17:19;;;;;;;23.87;17.90;;;;;;;4.82;66.83;96087.44;5112051;28;24839;-74
2022/03/12 08:19:46;;;;;;;25.10;17.25;;;;;;;5.18;65.54;96090.44;5112110;28;24444;-72
2022/03/12 08:22:14;;;;;;;21.08;16.75;;;;;;;5.27;65.13;96091.84;5112315;28;24466;-71
2022/03/12 08:24:41;;;;;;;19.70;17.00;;;;;;;5.24;66.25;96091.94;5112085;28;24440;-71
2022/03/12 08:27:08;;;;;;;27.63;17.48;;;;;;;5.18;66.71;96093.00;5112179;28;24418;-71
2022/03/12 08:29:35;;;;;;;23.35;16.25;;;;;;;5.33;65.75;96094.16;5111750;28;24529;-72
2022/03/12 08:32:01;;;;;;;19.55;16.10;;;;;;;5.67;64.56;96105.75;5111779;28;24486;-70
2022/03/12 08:34:27;;;;;;;20.20;16.90;;;;;;;5.65;64.98;96099.84;5130446;27;24428;-71
2022/03/12 08:36:54;;;;;;;22.45;17.15;;;;;;;5.62;66.44;96102.53;5103358;27;25171;-71
2022/03/12 08:39:22;;;;;;;23.50;17.05;;;;;;;5.73;66.84;96102.94;5091406;28;24479;-72
2022/03/12 08:41:49;;;;;;;22.17;16.02;;;;;;;5.78;66.87;96117.31;5091288;28;24434;-71
2022/03/12 08:44:15;;;;;;;19.25;16.85;;;;;;;5.78;66.60;96111.31;5091354;28;24814;-72
2022/03/12 08:46:45;;;;;;;23.63;15.95;;;;;;;5.88;65.67;96110.06;5091488;28;24479;-72
2022/03/12 08:49:12;;;;;;;23.80;17.58;;;;;;;5.99;64.70;96109.69;5091475;28;24418;-71
2022/03/12 08:51:38;;;;;;;23.67;17.50;;;;;;;5.98;65.04;96111.41;5091446;28;24417;-72
2022/03/12 08:54:05;;;;;;;18.88;16.95;;;;;;;6.10;64.67;96111.84;5091404;28;24418;-72
2022/03/12 08:56:33;;;;;;;30.40;17.60;;;;;;;6.20;63.24;96113.16;5091099;28;24822;-71
2022/03/12 08:58:59;;;;;;;22.17;16.95;;;;;;;6.20;63.46;96113.97;5096934;22;24505;-74
2022/03/12 09:01:26;;;;;;;18.50;16.23;;;;;;;6.36;62.59;96116.75;5070646;28;24559;-74
2022/03/12 09:03:52;;;;;;;22.93;16.90;;;;;;;6.32;62.47;96114.38;5071164;28;24429;-75
2022/03/12 09:06:20;;;;;;;21.73;16.92;;;;;;;6.46;62.38;96118.06;5079314;28;24761;-74
2022/03/12 09:08:47;;;;;;;22.00;17.30;;;;;;;6.52;62.66;96120.38;5087684;28;24438;-75
2022/03/12 09:11:15;;;;;;;26.23;17.60;;;;;;;6.52;61.50;96112.66;5067586;28;24450;-75
2022/03/12 09:13:43;;;;;;;20.58;16.98;;;;;;;6.62;61.54;96112.28;5070426;28;24422;-74
2022/03/12 09:16:10;;;;;;;25.17;18.30;;;;;;;6.59;62.63;96099.53;5069305;28;24433;-74
2022/03/12 09:18:36;;;;;;;18.85;16.60;;;;;;;6.71;61.81;96099.00;5070173;28;24438;-74
2022/03/12 09:21:03;;;;;;;20.37;17.30;;;;;;;6.83;61.80;96105.41;5073438;28;24447;-75
2022/03/12 09:23:29;;;;;;;24.65;18.15;;;;;;;7.02;61.56;96101.97;5071322;28;24434;-75
2022/03/12 09:25:56;;;;;;;23.65;17.23;;;;;;;7.10;60.09;96105.94;5070074;28;24547;-75
2022/03/12 09:28:23;;;;;;;23.58;17.90;;;;;;;7.16;59.40;96106.53;5069947;28;24956;-75
2022/03/12 09:30:51;;;;;;;24.02;17.23;;;;;;;7.26;60.26;96110.34;5069587;28;25002;-75
2022/03/12 09:33:19;;;;;;;23.75;16.92;;;;;;;7.30;60.35;96111.03;5070986;28;24468;-75
2022/03/12 09:35:45;;;;;;;23.30;18.63;;;;;;;7.32;59.32;96111.00;5073906;28;24806;-75
2022/03/12 09:38:12;;;;;;;20.05;17.25;;;;;;;7.40;61.06;96107.16;5084085;28;20870;-74
2022/03/12 09:40:39;;;;;;;21.05;17.33;;;;;;;7.65;59.97;96108.63;5068144;28;24461;-74
2022/03/12 09:43:05;;;;;;;23.75;17.55;;;;;;;7.79;58.96;96103.69;5070386;28;24480;-75
2022/03/12 09:45:32;;;;;;;21.00;18.50;;;;;;;7.81;57.94;96101.03;5070531;28;24423;-75
2022/03/12 09:48:00;;;;;;;23.77;18.30;;;;;;;7.81;58.12;96090.72;5070170;28;20756;-75
2022/03/12 09:50:26;;;;;;;28.67;18.45;;;;;;;8.07;60.85;96102.38;5069085;28;21426;-74
2022/03/12 09:52:53;;;;;;;24.15;18.13;;;;;;;8.11;58.30;96096.16;5070313;28;24506;-74
2022/03/12 09:55:22;;;;;;;21.38;18.10;;;;;;;8.19;57.25;96096.63;5069610;28;24982;-74
2022/03/12 09:57:49;;;;;;;25.13;18.17;;;;;;;8.22;56.83;96101.63;5070300;28;20778;-75
2022/03/12 10:00:19;;;;;;;27.20;17.85;;;;;;;8.30;56.76;96096.94;5069232;28;20774;-76
2022/03/12 10:02:45;;;;;;;22.95;17.58;;;;;;;8.43;56.55;96095.47;5067272;28;24480;-73
2022/03/12 10:05:14;;;;;;;25.20;18.75;;;;;;;8.62;55.06;96097.16;5061513;28;20758;-75
2022/03/12 10:07:41;;;;;;;26.52;18.45;;;;;;;8.68;55.86;96094.28;5049868;28;20866;-75
2022/03/12 10:10:12;;;;;;;27.65;17.77;;;;;;;8.83;56.05;96093.50;5065404;28;21162;-75
2022/03/12 10:12:39;;;;;;;25.23;18.27;;;;;;;9.03;54.64;96083.88;5061483;28;21140;-73
2022/03/12 10:15:06;;;;;;;22.83;17.45;;;;;;;9.41;55.72;96092.22;5061570;28;24515;-75
2022/03/12 10:17:33;;;;;;;24.70;18.00;;;;;;;9.86;53.06;96090.66;5069708;28;24427;-75
2022/03/12 10:20:00;;;;;;;20.75;17.05;;;;;;;10.38;52.01;96088.63;5063832;28;20831;-75
2022/03/12 10:22:27;;;;;;;20.13;16.20;;;;;;;10.97;53.42;96082.63;5063450;28;20878;-75
2022/03/12 10:24:54;;;;;;;26.05;17.17;;;;;;;11.03;51.98;96079.69;5056825;28;20811;-74
2022/03/12 10:27:21;;;;;;;24.60;16.40;;;;;;;11.26;52.82;96076.53;5066407;28;24500;-75
2022/03/12 10:29:47;;;;;;;19.80;16.13;;;;;;;11.42;49.72;96075.59;5068417;28;20900;-75
2022/03/12 10:32:23;;;;;;;22.17;15.77;;;;;;;11.56;51.00;96076.41;5068121;28;20776;-75
2022/03/12 10:34:52;;;;;;;19.38;15.10;;;;;;;11.60;50.57;96077.88;5067052;28;20722;-75
2022/03/12 10:37:20;;;;;;;19.80;15.63;;;;;;;11.54;50.40;96069.69;5066638;28;24431;-74
2022/03/12 10:39:48;;;;;;;18.35;14.45;;;;;;;11.57;49.24;96066.91;5068089;28;24537;-75
2022/03/12 10:42:15;;;;;;;25.13;16.10;;;;;;;11.54;47.32;96061.91;5065963;28;24461;-75
2022/03/12 10:44:42;;;;;;;19.30;15.88;;;;;;;11.61;47.97;96064.00;5068436;28;24462;-76
2022/03/12 10:47:16;;;;;;;18.48;14.90;;;;;;;11.74;47.92;96058.06;5068659;28;24427;-75
2022/03/12 10:49:57;;;;;;;22.67;15.00;;;;;;;11.77;49.83;96056.09;5068758;28;24435;-76
2022/03/12 10:52:24;;;;;;;20.63;14.02;;;;;;;11.81;51.59;96051.53;5071320;28;20729;-76
2022/03/12 10:54:52;;;;;;;18.40;14.02;;;;;;;11.85;52.83;96058.25;5072051;28;24446;-75
2022/03/12 10:57:19;;;;;;;23.60;13.80;;;;;;;11.86;49.08;96050.38;5068897;28;20769;-76
2022/03/12 10:59:46;;;;;;;14.00;12.10;;;;;;;11.90;52.87;96047.56;5071684;28;24962;-76
2022/03/12 11:02:15;;;;;;;13.43;11.18;;;;;;;12.07;51.55;96048.16;5070916;28;24891;-76
2022/03/12 11:04:41;;;;;;;15.50;11.60;;;;;;;12.30;54.38;96053.63;5071938;28;24526;-75
2022/03/12 11:07:25;;;;;;;15.60;10.93;;;;;;;12.44;55.04;96055.31;5088519;28;24974;-76
2022/03/12 11:09:54;;;;;;;11.25;10.05;;;;;;;12.60;53.12;96049.00;5079338;28;24473;-76
2022/03/12 11:12:29;;;;;;;10.00;9.00;;;;;;;12.70;51.77;96051.00;5072037;28;20802;-76
2022/03/12 11:15:02;;;;;;;11.68;9.43;;;;;;;12.53;51.19;96049.50;5073353;28;24484;-76
2022/03/12 11:17:28;;;;;;;8.32;7.43;;;;;;;12.33;52.47;96050.81;5072983;28;24529;-76
2022/03/12 11:19:57;;;;;;;8.60;7.53;;;;;;;12.29;54.86;96041.56;5071849;28;24438;-76
2022/03/12 11:22:24;;;;;;;9.63;8.60;;;;;;;12.78;52.69;96043.53;5076030;28;24485;-77
2022/03/12 11:24:51;;;;;;;10.25;8.82;;;;;;;12.74;51.12;96037.69;5077201;28;24422;-76
2022/03/12 11:27:31;;;;;;;8.10;7.30;;;;;;;11.96;51.91;96037.63;5057127;28;24438;-76